createdAt,value
2022-12-04T00:00:32.293Z,62.96
2022-12-04T00:01:32.397Z,63.15
2022-12-04T00:02:32.557Z,62.96
2022-12-04T00:03:32.688Z,63.15
2022-12-04T00:04:34.436Z,63.00
2022-12-04T00:05:32.851Z,63.29
2022-12-04T00:06:32.983Z,63.05
2022-12-04T00:07:33.141Z,63.05
2022-12-04T00:08:33.205Z,63.00
2022-12-04T00:09:33.305Z,63.24
2022-12-04T00:10:33.413Z,63.29
2022-12-04T00:11:33.547Z,63.00
2022-12-04T00:12:33.624Z,63.19
2022-12-04T00:13:33.773Z,63.39
2022-12-04T00:14:33.863Z,63.29
2022-12-04T00:15:33.970Z,63.63
2022-12-04T00:16:34.131Z,63.44
2022-12-04T00:17:34.189Z,63.29
2022-12-04T00:18:34.346Z,63.63
2022-12-04T00:19:34.415Z,63.34
2022-12-04T00:20:34.511Z,63.68
2022-12-04T00:21:34.628Z,63.53
2022-12-04T00:22:34.729Z,63.44
2022-12-04T00:23:34.863Z,63.53
2022-12-04T00:24:35.042Z,63.92
2022-12-04T00:25:40.753Z,63.58
2022-12-04T00:26:36.199Z,63.44
2022-12-04T00:27:35.310Z,63.48
2022-12-04T00:28:35.449Z,63.87
2022-12-04T00:29:35.530Z,63.48
2022-12-04T00:30:35.682Z,63.72
2022-12-04T00:31:35.779Z,63.48
2022-12-04T00:32:35.861Z,63.77
2022-12-04T00:33:36.008Z,63.44
2022-12-04T00:34:36.096Z,63.82
2022-12-04T00:35:36.189Z,64.07
2022-12-04T00:36:36.307Z,63.87
2022-12-04T00:37:36.401Z,63.68
2022-12-04T00:38:36.606Z,63.82
2022-12-04T00:39:36.616Z,63.92
2022-12-04T00:40:36.726Z,64.02
2022-12-04T00:41:36.836Z,63.97
2022-12-04T00:42:36.982Z,64.36
2022-12-04T00:43:37.125Z,64.41
2022-12-04T00:44:37.193Z,64.76
2022-12-04T00:45:37.313Z,65.22
2022-12-04T00:46:37.424Z,65.53
2022-12-04T00:47:37.523Z,65.68
2022-12-04T00:48:37.682Z,66.26
2022-12-04T00:49:37.753Z,66.63
2022-12-04T00:50:37.863Z,66.57
2022-12-04T00:51:37.976Z,66.89
2022-12-04T00:52:38.112Z,67.60
2022-12-04T00:53:38.203Z,67.60
2022-12-04T00:54:38.323Z,68.04
2022-12-04T00:55:38.446Z,68.65
2022-12-04T00:56:38.530Z,68.94
2022-12-04T00:57:38.659Z,69.17
2022-12-04T00:58:38.752Z,69.28
2022-12-04T00:59:38.881Z,69.75
2022-12-04T01:00:39.011Z,69.80
2022-12-04T01:01:39.149Z,69.92
2022-12-04T01:02:39.284Z,69.69
2022-12-04T01:03:39.347Z,69.98
2022-12-04T01:04:39.464Z,70.39
2022-12-04T01:05:39.569Z,70.93
2022-12-04T01:06:39.699Z,70.81
2022-12-04T01:07:39.914Z,71.23
2022-12-04T01:08:39.928Z,71.17
2022-12-04T01:09:40.063Z,71.72
2022-12-04T01:10:40.180Z,71.66
2022-12-04T01:11:40.278Z,72.03
2022-12-04T01:12:40.406Z,71.97
2022-12-04T01:13:40.498Z,71.97
2022-12-04T01:14:40.624Z,72.60
2022-12-04T01:15:40.734Z,72.41
2022-12-04T01:16:40.906Z,72.41
2022-12-04T01:17:40.974Z,72.28
2022-12-04T01:18:41.079Z,72.16
2022-12-04T01:19:41.185Z,72.41
2022-12-04T01:20:41.304Z,72.53
2022-12-04T01:21:41.412Z,72.53
2022-12-04T01:22:41.602Z,72.72
2022-12-04T01:23:41.643Z,72.91
2022-12-04T01:24:41.808Z,72.72
2022-12-04T01:25:41.865Z,72.72
2022-12-04T01:26:41.981Z,72.79
2022-12-04T01:27:42.131Z,72.53
2022-12-04T01:28:42.193Z,72.91
2022-12-04T01:29:42.311Z,72.60
2022-12-04T01:30:42.443Z,72.66
2022-12-04T01:31:42.595Z,72.28
2022-12-04T01:32:42.670Z,72.16
2022-12-04T01:33:42.774Z,72.35
2022-12-04T01:34:42.879Z,72.41
2022-12-04T01:35:42.988Z,72.22
2022-12-04T01:36:43.099Z,72.10
2022-12-04T01:37:43.231Z,71.85
2022-12-04T01:38:43.327Z,71.79
2022-12-04T01:39:43.437Z,71.97
2022-12-04T01:40:43.557Z,71.85
2022-12-04T01:41:43.697Z,71.48
2022-12-04T01:42:43.852Z,71.91
2022-12-04T01:43:43.924Z,71.48
2022-12-04T01:44:44.026Z,71.72
2022-12-04T01:45:44.201Z,71.29
2022-12-04T01:46:44.267Z,71.36
2022-12-04T01:47:44.385Z,71.05
2022-12-04T01:48:44.507Z,70.69
2022-12-04T01:49:44.616Z,71.36
2022-12-04T01:50:44.714Z,70.93
2022-12-04T01:51:44.822Z,70.99
2022-12-04T01:52:44.971Z,71.29
2022-12-04T01:53:45.082Z,71.05
2022-12-04T01:54:45.204Z,71.29
2022-12-04T01:55:45.303Z,71.54
2022-12-04T01:56:45.465Z,71.23
2022-12-04T01:57:45.564Z,71.42
2022-12-04T01:58:45.662Z,71.11
2022-12-04T01:59:45.775Z,71.11
2022-12-04T02:00:49.732Z,71.17
2022-12-04T02:01:47.176Z,71.36
2022-12-04T02:02:46.201Z,70.99
2022-12-04T02:03:46.254Z,71.17
2022-12-04T02:04:46.941Z,70.99
2022-12-04T02:05:46.489Z,70.75
2022-12-04T02:06:46.589Z,70.87
2022-12-04T02:07:46.787Z,70.99
2022-12-04T02:08:46.824Z,70.93
2022-12-04T02:09:46.908Z,70.69
2022-12-04T02:10:47.037Z,70.75
2022-12-04T02:11:47.148Z,71.05
2022-12-04T02:12:47.284Z,71.54
2022-12-04T02:13:47.366Z,71.36
2022-12-04T02:14:47.474Z,71.29
2022-12-04T02:15:47.596Z,71.66
2022-12-04T02:16:47.767Z,71.60
2022-12-04T02:17:47.948Z,71.91
2022-12-04T02:18:47.925Z,71.85
2022-12-04T02:19:48.035Z,71.17
2022-12-04T02:20:48.155Z,70.69
2022-12-04T02:21:48.295Z,70.21
2022-12-04T02:22:48.426Z,69.63
2022-12-04T02:23:48.529Z,69.05
2022-12-04T02:24:50.351Z,68.32
2022-12-04T02:25:48.762Z,67.82
2022-12-04T02:26:48.875Z,67.76
2022-12-04T02:27:49.012Z,67.22
2022-12-04T02:28:49.105Z,66.89
2022-12-04T02:29:49.229Z,66.79
2022-12-04T02:30:49.384Z,66.31
2022-12-04T02:31:49.449Z,66.20
2022-12-04T02:32:49.581Z,66.05
2022-12-04T02:33:49.680Z,65.84
2022-12-04T02:34:49.795Z,65.73
2022-12-04T02:35:49.899Z,65.17
2022-12-04T02:36:50.010Z,65.17
2022-12-04T02:37:50.158Z,64.92
2022-12-04T02:38:50.280Z,64.56
2022-12-04T02:39:50.398Z,64.97
2022-12-04T02:40:50.499Z,64.71
2022-12-04T02:41:50.607Z,64.71
2022-12-04T02:42:50.782Z,64.51
2022-12-04T02:43:50.820Z,64.17
2022-12-04T02:44:50.957Z,64.36
2022-12-04T02:45:51.074Z,64.17
2022-12-04T02:46:51.167Z,64.32
2022-12-04T02:47:51.386Z,64.22
2022-12-04T02:48:51.410Z,64.22
2022-12-04T02:49:51.521Z,64.36
2022-12-04T02:50:51.616Z,64.26
2022-12-04T02:51:51.724Z,64.36
2022-12-04T02:52:51.845Z,64.26
2022-12-04T02:53:51.984Z,64.66
2022-12-04T02:54:52.086Z,64.66
2022-12-04T02:55:52.197Z,64.76
2022-12-04T02:56:52.311Z,64.66
2022-12-04T02:57:52.427Z,64.76
2022-12-04T02:58:53.553Z,64.86
2022-12-04T02:59:52.941Z,64.92
2022-12-04T03:00:52.781Z,65.32
2022-12-04T03:01:52.929Z,65.17
2022-12-04T03:02:53.025Z,65.58
2022-12-04T03:03:53.106Z,65.63
2022-12-04T03:04:53.280Z,65.99
2022-12-04T03:05:53.343Z,66.20
2022-12-04T03:06:53.463Z,66.15
2022-12-04T03:07:53.656Z,66.47
2022-12-04T03:08:53.712Z,66.47
2022-12-04T03:09:54.042Z,66.52
2022-12-04T03:10:53.907Z,66.20
2022-12-04T03:11:54.010Z,66.79
2022-12-04T03:12:54.126Z,66.68
2022-12-04T03:13:54.277Z,66.79
2022-12-04T03:14:54.348Z,67.16
2022-12-04T03:15:54.455Z,67.49
2022-12-04T03:16:54.608Z,67.76
2022-12-04T03:17:54.676Z,68.60
2022-12-04T03:18:54.807Z,69.40
2022-12-04T03:19:55.161Z,70.04
2022-12-04T03:20:55.008Z,71.05
2022-12-04T03:21:55.119Z,71.79
2022-12-04T03:22:55.229Z,73.56
2022-12-04T03:23:55.376Z,74.74
2022-12-04T03:24:55.507Z,76.18
2022-12-04T03:25:55.605Z,76.67
2022-12-04T03:26:55.729Z,77.74
2022-12-04T03:27:55.836Z,78.69
2022-12-04T03:28:55.953Z,79.51
2022-12-04T03:29:56.349Z,80.43
2022-12-04T03:30:56.240Z,81.94
2022-12-04T03:31:56.315Z,84.17
2022-12-04T03:32:56.424Z,85.46
2022-12-04T03:33:56.724Z,87.43
2022-12-04T03:34:56.622Z,89.11
2022-12-04T03:35:56.743Z,90.56
2022-12-04T03:36:56.873Z,92.57
2022-12-04T03:37:56.982Z,94.03
2022-12-04T03:38:57.184Z,95.87
2022-12-04T03:39:57.504Z,95.85
2022-12-04T03:40:57.280Z,97.19
2022-12-04T03:41:57.390Z,100.17
2022-12-04T03:42:57.563Z,102.69
2022-12-04T03:43:57.661Z,104.49
2022-12-04T03:44:57.823Z,106.63
2022-12-04T03:45:58.004Z,109.07
2022-12-04T03:46:58.069Z,111.55
2022-12-04T03:47:58.239Z,114.06
2022-12-04T03:48:58.347Z,117.27
2022-12-04T03:49:58.692Z,119.20
2022-12-04T03:50:58.567Z,121.45
2022-12-04T03:51:58.697Z,122.88
2022-12-04T03:52:58.837Z,126.04
2022-12-04T03:53:58.968Z,128.27
2022-12-04T03:54:59.119Z,129.76
2022-12-04T03:55:59.219Z,132.23
2022-12-04T03:56:59.336Z,132.86
2022-12-04T03:57:59.466Z,134.47
2022-12-04T03:58:59.610Z,134.68
2022-12-04T04:00:00.054Z,136.45
2022-12-04T04:00:59.990Z,137.57
2022-12-04T04:02:00.061Z,138.83
2022-12-04T04:03:00.152Z,140.35
2022-12-04T04:04:00.256Z,144.23
2022-12-04T04:05:00.477Z,145.11
2022-12-04T04:06:00.506Z,149.53
2022-12-04T04:07:00.635Z,150.88
2022-12-04T04:08:00.807Z,152.68
2022-12-04T04:09:00.915Z,156.25
2022-12-04T04:10:01.111Z,159.08
2022-12-04T04:11:01.194Z,160.61
2022-12-04T04:12:01.363Z,163.12
2022-12-04T04:13:01.472Z,164.90
2022-12-04T04:14:01.604Z,168.39
2022-12-04T04:15:01.750Z,170.45
2022-12-04T04:16:01.960Z,171.51
2022-12-04T04:17:02.020Z,175.29
2022-12-04T04:18:02.153Z,178.48
2022-12-04T04:19:02.313Z,179.82
2022-12-04T04:20:02.452Z,182.98
2022-12-04T04:21:02.531Z,184.19
2022-12-04T04:22:02.670Z,183.99
2022-12-04T04:23:02.798Z,185.83
2022-12-04T04:24:02.954Z,192.37
2022-12-04T04:25:03.180Z,197.94
2022-12-04T04:26:03.209Z,203.09
2022-12-04T04:27:03.358Z,206.02
2022-12-04T04:28:03.487Z,207.58
2022-12-04T04:29:03.650Z,210.38
2022-12-04T04:30:03.747Z,213.39
2022-12-04T04:31:03.956Z,217.06
2022-12-04T04:32:04.007Z,219.09
2022-12-04T04:33:04.137Z,220.86
2022-12-04T04:34:04.284Z,219.82
2022-12-04T04:35:04.427Z,222.05
2022-12-04T04:36:04.569Z,224.18
2022-12-04T04:37:04.701Z,225.41
2022-12-04T04:38:04.836Z,228.55
2022-12-04T04:39:04.981Z,229.99
2022-12-04T04:40:05.142Z,231.45
2022-12-04T04:41:05.246Z,232.27
2022-12-04T04:42:05.394Z,230.31
2022-12-04T04:43:05.514Z,228.23
2022-12-04T04:44:05.646Z,228.87
2022-12-04T04:45:05.825Z,227.76
2022-12-04T04:46:05.950Z,226.81
2022-12-04T04:47:06.024Z,224.48
2022-12-04T04:48:06.173Z,222.05
2022-12-04T04:49:06.310Z,221.75
2022-12-04T04:50:06.513Z,219.09
2022-12-04T04:51:06.602Z,217.63
2022-12-04T04:52:06.729Z,217.92
2022-12-04T04:53:06.885Z,215.21
2022-12-04T04:54:07.012Z,214.22
2022-12-04T04:55:07.166Z,215.91
2022-12-04T04:56:07.271Z,215.63
2022-12-04T04:57:07.376Z,214.36
2022-12-04T04:58:07.482Z,216.63
2022-12-04T04:59:07.610Z,216.06
2022-12-04T05:00:07.781Z,215.77
2022-12-04T05:01:07.878Z,214.64
2022-12-04T05:02:08.058Z,214.93
2022-12-04T05:03:08.150Z,213.80
2022-12-04T05:04:08.265Z,214.08
2022-12-04T05:05:08.440Z,213.25
2022-12-04T05:06:08.541Z,211.87
2022-12-04T05:07:08.621Z,209.17
2022-12-04T05:08:08.905Z,209.04
2022-12-04T05:09:08.890Z,209.44
2022-12-04T05:10:09.065Z,208.64
2022-12-04T05:11:09.147Z,208.24
2022-12-04T05:12:09.285Z,206.80
2022-12-04T05:13:09.417Z,205.12
2022-12-04T05:14:09.618Z,204.73
2022-12-04T05:15:09.715Z,203.09
2022-12-04T05:16:09.877Z,201.84
2022-12-04T05:17:12.736Z,200.85
2022-12-04T05:18:10.090Z,201.09
2022-12-04T05:19:10.225Z,199.50
2022-12-04T05:20:10.374Z,197.35
2022-12-04T05:21:10.507Z,197.11
2022-12-04T05:22:10.660Z,195.35
2022-12-04T05:23:10.793Z,192.71
2022-12-04T05:24:10.934Z,191.70
2022-12-04T05:25:11.274Z,191.92
2022-12-04T05:26:11.192Z,193.73
2022-12-04T05:27:11.370Z,193.16
2022-12-04T05:28:11.463Z,192.37
2022-12-04T05:29:11.553Z,191.81
2022-12-04T05:30:11.713Z,191.14
2022-12-04T05:31:11.889Z,191.58
2022-12-04T05:32:11.972Z,192.60
2022-12-04T05:33:12.111Z,193.96
2022-12-04T05:34:12.241Z,197.35
2022-12-04T05:35:12.390Z,199.99
2022-12-04T05:36:12.544Z,201.59
2022-12-04T05:37:12.668Z,203.09
2022-12-04T05:38:12.805Z,201.96
2022-12-04T05:39:12.949Z,203.21
2022-12-04T05:40:13.111Z,203.21
2022-12-04T05:41:13.204Z,203.34
2022-12-04T05:42:13.350Z,202.83
2022-12-04T05:43:13.469Z,204.48
2022-12-04T05:44:13.597Z,204.73
2022-12-04T05:45:13.798Z,204.48
2022-12-04T05:46:13.919Z,206.41
2022-12-04T05:47:14.018Z,204.10
2022-12-04T05:48:14.148Z,204.35
2022-12-04T05:49:14.286Z,206.80
2022-12-04T05:50:14.569Z,205.63
2022-12-04T05:51:14.534Z,205.89
2022-12-04T05:52:14.675Z,207.32
2022-12-04T05:53:14.810Z,207.71
2022-12-04T05:54:14.905Z,207.98
2022-12-04T05:55:15.053Z,208.11
2022-12-04T05:56:15.144Z,208.90
2022-12-04T05:57:15.311Z,208.90
2022-12-04T05:58:15.411Z,210.78
2022-12-04T05:59:15.570Z,211.33
2022-12-04T06:00:15.703Z,213.39
2022-12-04T06:01:15.807Z,213.80
2022-12-04T06:02:16.057Z,212.97
2022-12-04T06:03:16.188Z,214.08
2022-12-04T06:04:16.161Z,215.63
2022-12-04T06:05:16.470Z,217.49
2022-12-04T06:06:21.541Z,219.23
2022-12-04T06:07:17.530Z,217.78
2022-12-04T06:08:16.685Z,219.38
2022-12-04T06:09:16.802Z,218.65
2022-12-04T06:10:16.938Z,218.94
2022-12-04T06:11:17.081Z,218.79
2022-12-04T06:12:17.218Z,218.65
2022-12-04T06:13:17.349Z,218.21
2022-12-04T06:14:17.532Z,219.67
2022-12-04T06:15:17.612Z,220.71
2022-12-04T06:16:17.819Z,220.86
2022-12-04T06:17:17.876Z,221.01
2022-12-04T06:18:18.026Z,222.50
2022-12-04T06:19:18.163Z,223.57
2022-12-04T06:20:18.387Z,224.64
2022-12-04T06:21:18.426Z,224.64
2022-12-04T06:22:18.536Z,221.45
2022-12-04T06:23:18.666Z,222.50
2022-12-04T06:24:18.805Z,221.60
2022-12-04T06:25:20.500Z,222.65
2022-12-04T06:26:19.083Z,221.01
2022-12-04T06:27:28.080Z,219.97
2022-12-04T06:28:20.333Z,219.67
2022-12-04T06:29:19.507Z,220.12
2022-12-04T06:30:19.582Z,221.60
2022-12-04T06:31:19.766Z,219.53
2022-12-04T06:32:22.044Z,219.23
2022-12-04T06:33:19.972Z,219.23
2022-12-04T06:34:20.122Z,220.41
2022-12-04T06:35:20.251Z,220.71
2022-12-04T06:36:20.340Z,221.01
2022-12-04T06:37:20.491Z,221.75
2022-12-04T06:38:20.622Z,221.90
2022-12-04T06:39:20.802Z,220.71
2022-12-04T06:40:20.878Z,220.86
2022-12-04T06:41:21.008Z,221.15
2022-12-04T06:42:21.131Z,223.57
2022-12-04T06:43:21.274Z,226.50
2022-12-04T06:44:21.420Z,227.12
2022-12-04T06:45:21.559Z,228.55
2022-12-04T06:46:21.693Z,227.44
2022-12-04T06:47:21.767Z,228.87
2022-12-04T06:48:21.908Z,228.87
2022-12-04T06:49:22.050Z,230.80
2022-12-04T06:50:22.237Z,229.99
2022-12-04T06:51:22.316Z,231.78
2022-12-04T06:52:22.449Z,236.28
2022-12-04T06:53:22.593Z,237.65
2022-12-04T06:54:22.726Z,240.09
2022-12-04T06:55:22.875Z,240.62
2022-12-04T06:56:22.984Z,240.26
2022-12-04T06:57:23.104Z,239.56
2022-12-04T06:58:23.235Z,239.39
2022-12-04T06:59:23.404Z,238.52
2022-12-04T07:00:23.483Z,239.21
2022-12-04T07:01:23.730Z,239.74
2022-12-04T07:02:23.795Z,238.34
2022-12-04T07:03:23.882Z,238.69
2022-12-04T07:04:24.062Z,237.48
2022-12-04T07:05:24.181Z,238.00
2022-12-04T07:06:24.268Z,235.60
2022-12-04T07:07:24.403Z,234.59
2022-12-04T07:08:24.551Z,233.26
2022-12-04T07:09:24.719Z,231.78
2022-12-04T07:10:24.829Z,233.59
2022-12-04T07:11:24.993Z,234.43
2022-12-04T07:12:25.082Z,234.09
2022-12-04T07:13:25.211Z,232.27
2022-12-04T07:14:25.360Z,231.94
2022-12-04T07:15:25.490Z,232.27
2022-12-04T07:16:25.672Z,230.48
2022-12-04T07:17:25.739Z,228.55
2022-12-04T07:18:25.876Z,229.03
2022-12-04T07:19:26.056Z,228.23
2022-12-04T07:20:26.152Z,227.28
2022-12-04T07:21:26.297Z,228.07
2022-12-04T07:22:26.428Z,230.15
2022-12-04T07:23:26.567Z,227.91
2022-12-04T07:24:26.707Z,229.19
2022-12-04T07:25:26.898Z,231.78
2022-12-04T07:26:26.988Z,233.59
2022-12-04T07:27:27.160Z,236.11
2022-12-04T07:28:27.251Z,238.00
2022-12-04T07:29:27.388Z,240.26
2022-12-04T07:30:27.466Z,242.39
2022-12-04T07:31:27.694Z,242.93
2022-12-04T07:32:27.747Z,246.21
2022-12-04T07:33:27.874Z,249.01
2022-12-04T07:34:28.015Z,250.92
2022-12-04T07:35:28.146Z,253.44
2022-12-04T07:36:28.273Z,254.62
2022-12-04T07:37:28.415Z,250.92
2022-12-04T07:38:28.547Z,256.01
2022-12-04T07:39:28.711Z,256.81
2022-12-04T07:40:28.792Z,255.01
2022-12-04T07:41:28.921Z,255.21
2022-12-04T07:42:29.077Z,254.82
2022-12-04T07:43:29.202Z,253.83
2022-12-04T07:44:29.359Z,254.03
2022-12-04T07:45:29.638Z,252.08
2022-12-04T07:46:29.757Z,252.27
2022-12-04T07:47:29.719Z,252.27
2022-12-04T07:48:33.361Z,251.11
2022-12-04T07:49:29.980Z,250.73
2022-12-04T07:50:30.135Z,250.35
2022-12-04T07:51:30.229Z,248.64
2022-12-04T07:52:30.374Z,247.89
2022-12-04T07:53:30.541Z,248.26
2022-12-04T07:54:30.709Z,248.45
2022-12-04T07:55:30.758Z,248.45
2022-12-04T07:56:30.892Z,249.01
2022-12-04T07:57:31.017Z,252.27
2022-12-04T07:58:31.157Z,246.95
2022-12-04T07:59:31.378Z,245.48
2022-12-04T08:00:31.416Z,244.74
2022-12-04T08:01:31.706Z,246.03
2022-12-04T08:02:31.688Z,246.58
2022-12-04T08:03:31.849Z,247.70
2022-12-04T08:04:32.990Z,247.33
2022-12-04T08:05:32.145Z,244.93
2022-12-04T08:06:32.236Z,245.11
2022-12-04T08:07:32.404Z,244.20
2022-12-04T08:08:32.503Z,240.09
2022-12-04T08:09:32.663Z,236.62
2022-12-04T08:10:32.756Z,237.14
2022-12-04T08:11:32.891Z,234.43
2022-12-04T08:12:33.034Z,233.59
2022-12-04T08:13:33.172Z,231.78
2022-12-04T08:14:33.343Z,232.60
2022-12-04T08:15:33.421Z,229.99
2022-12-04T08:16:33.705Z,230.31
2022-12-04T08:17:33.703Z,228.23
2022-12-04T08:18:33.841Z,229.51
2022-12-04T08:19:33.990Z,227.44
2022-12-04T08:20:34.085Z,226.34
2022-12-04T08:21:34.212Z,225.10
2022-12-04T08:22:34.381Z,223.11
2022-12-04T08:23:34.473Z,222.35
2022-12-04T08:24:34.744Z,222.50
2022-12-04T08:25:34.771Z,218.79
2022-12-04T08:26:34.859Z,219.38
2022-12-04T08:27:34.998Z,217.35
2022-12-04T08:28:35.139Z,217.06
2022-12-04T08:29:35.306Z,216.49
2022-12-04T08:30:35.526Z,213.39
2022-12-04T08:31:35.703Z,214.36
2022-12-04T08:32:35.679Z,212.97
2022-12-04T08:33:35.825Z,213.39
2022-12-04T08:34:35.975Z,213.66
2022-12-04T08:35:36.078Z,211.74
2022-12-04T08:36:36.216Z,210.78
2022-12-04T08:37:36.383Z,209.30
2022-12-04T08:38:36.475Z,207.85
2022-12-04T08:39:36.657Z,210.24
2022-12-04T08:40:36.763Z,208.64
2022-12-04T08:41:36.855Z,206.15
2022-12-04T08:42:36.992Z,207.19
2022-12-04T08:43:37.125Z,207.06
2022-12-04T08:44:37.293Z,205.89
2022-12-04T08:45:37.515Z,204.86
2022-12-04T08:46:37.538Z,203.97
2022-12-04T08:47:37.625Z,203.97
2022-12-04T08:48:37.761Z,204.86
2022-12-04T08:49:37.914Z,203.46
2022-12-04T08:50:38.004Z,204.22
2022-12-04T08:51:38.145Z,203.21
2022-12-04T08:52:38.251Z,203.46
2022-12-04T08:53:38.421Z,201.22
2022-12-04T08:54:38.458Z,198.90
2022-12-04T08:55:38.609Z,198.30
2022-12-04T08:56:38.701Z,197.82
2022-12-04T08:57:38.799Z,197.70
2022-12-04T08:58:39.077Z,195.12
2022-12-04T08:59:39.063Z,194.19
2022-12-04T09:00:39.158Z,195.12
2022-12-04T09:01:39.380Z,194.65
2022-12-04T09:02:39.442Z,195.23
2022-12-04T09:03:39.638Z,194.77
2022-12-04T09:04:39.767Z,192.82
2022-12-04T09:05:41.467Z,192.93
2022-12-04T09:06:39.967Z,192.82
2022-12-04T09:07:40.104Z,194.42
2022-12-04T09:08:40.237Z,194.31
2022-12-04T09:09:44.947Z,193.39
2022-12-04T09:10:41.422Z,193.16
2022-12-04T09:11:40.546Z,192.37
2022-12-04T09:12:40.676Z,192.71
2022-12-04T09:13:40.806Z,191.92
2022-12-04T09:14:40.911Z,191.02
2022-12-04T09:15:41.091Z,192.26
2022-12-04T09:16:41.173Z,192.82
2022-12-04T09:17:41.313Z,190.69
2022-12-04T09:18:41.500Z,190.58
2022-12-04T09:19:41.583Z,189.81
2022-12-04T09:20:41.725Z,191.81
2022-12-04T09:21:41.820Z,191.70
2022-12-04T09:23:02.806Z,190.69
2022-12-04T09:23:43.162Z,190.14
2022-12-04T09:24:42.221Z,189.26
2022-12-04T09:25:42.448Z,191.70
2022-12-04T09:26:42.489Z,193.50
2022-12-04T09:27:42.591Z,194.08
2022-12-04T09:28:42.753Z,193.28
2022-12-04T09:29:42.848Z,190.80
2022-12-04T09:30:43.026Z,189.70
2022-12-04T09:31:43.181Z,190.25
2022-12-04T09:32:43.229Z,188.29
2022-12-04T09:33:43.390Z,189.26
2022-12-04T09:34:47.051Z,188.72
2022-12-04T09:35:44.580Z,189.48
2022-12-04T09:36:43.738Z,191.70
2022-12-04T09:37:43.818Z,191.58
2022-12-04T09:38:44.180Z,191.70
2022-12-04T09:39:44.106Z,192.82
2022-12-04T09:40:44.199Z,192.71
2022-12-04T09:41:44.347Z,191.58
2022-12-04T09:42:44.488Z,189.70
2022-12-04T09:43:44.658Z,187.96
2022-12-04T09:44:44.749Z,186.25
2022-12-04T09:45:44.883Z,185.31
2022-12-04T09:46:45.398Z,186.25
2022-12-04T09:47:45.134Z,185.31
2022-12-04T09:48:45.294Z,187.32
2022-12-04T09:49:45.395Z,185.94
2022-12-04T09:50:45.546Z,187.21
2022-12-04T09:51:45.699Z,185.62
2022-12-04T09:52:45.821Z,185.52
2022-12-04T09:53:45.978Z,186.04
2022-12-04T09:54:46.065Z,185.83
2022-12-04T09:55:46.222Z,185.31
2022-12-04T09:56:46.303Z,185.20
2022-12-04T09:57:46.473Z,186.04
2022-12-04T09:58:46.741Z,184.60
2022-12-04T09:59:46.675Z,183.38
2022-12-04T10:00:46.814Z,181.98
2022-12-04T10:01:46.949Z,181.58
2022-12-04T10:02:47.157Z,181.58
2022-12-04T10:03:47.322Z,180.21
2022-12-04T10:04:47.343Z,181.19
2022-12-04T10:05:47.573Z,180.80
2022-12-04T10:06:47.579Z,179.63
2022-12-04T10:07:47.763Z,178.86
2022-12-04T10:08:47.951Z,179.63
2022-12-04T10:09:47.938Z,178.86
2022-12-04T10:10:48.065Z,176.21
2022-12-04T10:11:48.211Z,175.29
2022-12-04T10:12:48.350Z,173.47
2022-12-04T10:13:48.528Z,173.11
2022-12-04T10:14:48.607Z,173.83
2022-12-04T10:15:48.784Z,175.29
2022-12-04T10:16:48.875Z,173.29
2022-12-04T10:17:49.016Z,172.57
2022-12-04T10:18:49.159Z,172.21
2022-12-04T10:19:49.306Z,171.33
2022-12-04T10:20:49.418Z,169.76
2022-12-04T10:21:49.560Z,168.73
2022-12-04T10:22:49.685Z,168.22
2022-12-04T10:23:49.822Z,166.38
2022-12-04T10:24:50.001Z,165.88
2022-12-04T10:25:50.111Z,163.92
2022-12-04T10:26:50.223Z,163.28
2022-12-04T10:27:50.362Z,164.41
2022-12-04T10:28:54.996Z,164.41
2022-12-04T10:29:51.642Z,164.57
2022-12-04T10:30:50.795Z,164.25
2022-12-04T10:31:50.970Z,163.92
2022-12-04T10:32:51.024Z,163.12
2022-12-04T10:33:51.151Z,162.17
2022-12-04T10:34:51.318Z,162.17
2022-12-04T10:35:51.423Z,162.01
2022-12-04T10:36:51.568Z,162.17
2022-12-04T10:37:51.689Z,161.70
2022-12-04T10:38:51.829Z,160.92
2022-12-04T10:39:52.018Z,161.08
2022-12-04T10:40:52.097Z,162.80
2022-12-04T10:41:52.219Z,161.70
2022-12-04T10:42:52.346Z,160.46
2022-12-04T10:43:52.496Z,159.84
2022-12-04T10:44:52.666Z,158.63
2022-12-04T10:45:52.842Z,158.02
2022-12-04T10:46:52.918Z,158.02
2022-12-04T10:47:52.994Z,156.98
2022-12-04T10:48:53.132Z,156.69
2022-12-04T10:49:53.521Z,155.52
2022-12-04T10:50:53.405Z,156.40
2022-12-04T10:51:53.534Z,154.80
2022-12-04T10:52:53.673Z,153.94
2022-12-04T10:53:53.793Z,153.80
2022-12-04T10:54:53.985Z,151.29
2022-12-04T10:55:54.064Z,151.15
2022-12-04T10:56:54.202Z,150.47
2022-12-04T10:57:54.364Z,149.13
2022-12-04T10:58:54.462Z,149.93
2022-12-04T10:59:55.073Z,149.13
2022-12-04T11:00:54.746Z,148.99
2022-12-04T11:01:54.960Z,147.03
2022-12-04T11:02:55.080Z,147.03
2022-12-04T11:03:55.143Z,144.86
2022-12-04T11:04:55.330Z,145.36
2022-12-04T11:05:55.465Z,145.36
2022-12-04T11:06:55.549Z,145.23
2022-12-04T11:07:55.697Z,142.75
2022-12-04T11:08:55.778Z,141.66
2022-12-04T11:09:56.186Z,141.06
2022-12-04T11:10:56.071Z,142.51
2022-12-04T11:11:56.169Z,144.35
2022-12-04T11:12:56.309Z,144.11
2022-12-04T11:13:56.477Z,144.98
2022-12-04T11:14:56.609Z,145.62
2022-12-04T11:15:56.795Z,146.64
2022-12-04T11:16:57.237Z,145.62
2022-12-04T11:17:56.945Z,146.12
2022-12-04T11:18:57.108Z,146.64
2022-12-04T11:19:57.672Z,147.29
2022-12-04T11:20:57.365Z,147.81
2022-12-04T11:21:57.493Z,148.46
2022-12-04T11:22:57.624Z,146.51
2022-12-04T11:23:57.754Z,146.12
2022-12-04T11:24:57.947Z,144.73
2022-12-04T11:26:03.690Z,143.12
2022-12-04T11:26:59.173Z,142.51
2022-12-04T11:27:58.284Z,142.14
2022-12-04T11:28:58.424Z,140.94
2022-12-04T11:29:58.808Z,139.88
2022-12-04T11:30:58.746Z,140.47
2022-12-04T11:32:04.221Z,142.26
2022-12-04T11:32:59.932Z,142.51
2022-12-04T11:33:59.061Z,144.11
2022-12-04T11:34:59.201Z,144.35
2022-12-04T11:35:59.365Z,144.48
2022-12-04T11:36:59.433Z,144.73
2022-12-04T11:37:59.572Z,145.36
2022-12-04T11:38:59.699Z,145.36
2022-12-04T11:39:59.909Z,144.73
2022-12-04T11:40:59.960Z,144.48
2022-12-04T11:42:00.098Z,145.36
2022-12-04T11:43:00.237Z,146.51
2022-12-04T11:44:00.990Z,146.38
2022-12-04T11:45:00.559Z,147.42
2022-12-04T11:46:00.711Z,147.68
2022-12-04T11:47:00.832Z,146.12
2022-12-04T11:48:00.928Z,147.81
2022-12-04T11:49:01.013Z,147.81
2022-12-04T11:50:01.350Z,147.68
2022-12-04T11:51:01.298Z,147.81
2022-12-04T11:52:01.421Z,147.81
2022-12-04T11:53:01.548Z,147.16
2022-12-04T11:54:01.695Z,147.42
2022-12-04T11:55:01.875Z,147.42
2022-12-04T11:56:02.130Z,146.51
2022-12-04T11:57:02.121Z,147.68
2022-12-04T11:58:02.215Z,148.33
2022-12-04T11:59:02.345Z,148.73
2022-12-04T12:00:02.548Z,149.26
2022-12-04T12:01:02.634Z,149.53
2022-12-04T12:02:02.888Z,150.47
2022-12-04T12:03:03.100Z,150.61
2022-12-04T12:04:03.012Z,151.29
2022-12-04T12:05:03.171Z,151.15
2022-12-04T12:06:03.375Z,151.29
2022-12-04T12:07:03.403Z,150.34
2022-12-04T12:08:03.550Z,149.53
2022-12-04T12:09:03.672Z,149.13
2022-12-04T12:10:03.861Z,150.61
2022-12-04T12:11:03.943Z,148.73
2022-12-04T12:12:04.080Z,150.20
2022-12-04T12:13:04.210Z,148.86
2022-12-04T12:14:04.353Z,148.33
2022-12-04T12:15:04.569Z,148.20
2022-12-04T12:16:04.680Z,147.29
2022-12-04T12:17:04.761Z,147.55
2022-12-04T12:18:04.851Z,146.64
2022-12-04T12:19:04.988Z,148.20
2022-12-04T12:20:05.141Z,148.07
2022-12-04T12:21:05.267Z,146.77
2022-12-04T12:22:06.765Z,146.38
2022-12-04T12:23:05.530Z,145.87
2022-12-04T12:24:05.678Z,145.23
2022-12-04T12:25:05.820Z,144.60
2022-12-04T12:26:06.067Z,143.86
2022-12-04T12:27:06.148Z,143.98
2022-12-04T12:28:06.235Z,142.26
2022-12-04T12:29:06.371Z,143.12
2022-12-04T12:30:06.532Z,141.30
2022-12-04T12:31:06.626Z,142.38
2022-12-04T12:32:06.822Z,141.42
2022-12-04T12:33:06.926Z,141.06
2022-12-04T12:34:07.003Z,140.94
2022-12-04T12:35:07.163Z,140.23
2022-12-04T12:36:07.423Z,138.60
2022-12-04T12:37:07.433Z,138.26